Fairbanks, Alaska
Current Conditions -  °F | °C
As of 6:20 AM on Thursday 23 Oct 2014 (Local Time) from PAFB Reporting Station
Broken Clouds Broken Clouds  
Wind Chill: 16°   Ceiling: 2400
Heat Index: 16°   Visibility: 10mi
Dew Point: 10°   Wind: 2mph
Humidity: 79%   Direction: 260°W
Pressure: 29.8"   Gusts: NA
Location:  64.85°N, 147.72°W
Report Text: PAFB 231420Z 26002KT 10SM BKN024 BKN070 M09/M12 A2980 RMK FIRST
Loading
Personal Weather Stations






























Interactive Weather Map New forecast layout! Learn more

10-Day Weather Forecast

Advertisements
Track Severe Weather on mobile